Time;durP1;ratioP1;P1;durP2;ratioP2;P2;SDS_P1;SDS_P2;PMS_P1;PMS_P2;Temp;Humidity;BMP_temperature;BMP_pressure;BME280_temperature;BME280_humidity;BME280_pressure;Samples;Min_cycle;Max_cycle;Signal;HPM_P1;HPM_P2
2023/10/01 00:00:25;;;;;;;;;;;;;;;-140.72;100.00;52760.19;5068370;28;19927;-70
2023/10/01 00:02:51;;;;;;;;;;;;;;;-140.72;100.00;52796.72;5075518;28;19917;-69
2023/10/01 00:05:17;;;;;;;;;;;;;;;-140.72;100.00;52792.66;5076691;28;19924;-69
2023/10/01 00:07:43;;;;;;;;;;;;;;;-140.72;100.00;52762.22;5071699;28;19920;-69
2023/10/01 00:10:11;;;;;;;;;;;;;;;-140.72;100.00;52774.38;5074820;28;19921;-69
2023/10/01 00:12:38;;;;;;;;;;;;;;;-140.72;100.00;52776.41;5070083;28;19917;-69
2023/10/01 00:15:04;;;;;;;;;;;;;;;-140.72;100.00;52754.09;5069712;28;20382;-69
2023/10/01 00:17:31;;;;;;;;;;;;;;;-140.72;100.00;52782.50;5076222;28;19917;-70
2023/10/01 00:19:57;;;;;;;;;;;;;;;-140.72;100.00;52796.72;5073606;28;20318;-70
2023/10/01 00:22:22;;;;;;;;;;;;;;;-140.72;100.00;52760.19;5072636;28;19958;-70
2023/10/01 00:24:47;;;;;;;;;;;;;;;-140.72;100.00;52788.59;5080352;28;19916;-69
2023/10/01 00:27:12;;;;;;;;;;;;;;;-140.72;100.00;52768.28;5081515;28;19935;-70
2023/10/01 00:29:38;;;;;;;;;;;;;;;-140.72;100.00;52778.44;5067406;28;19924;-70
2023/10/01 00:32:04;;;;;;;;;;;;;;;-140.72;100.00;52756.13;5075962;28;19987;-71
2023/10/01 00:34:29;;;;;;;;;;;;;;;-140.72;100.00;52770.31;5075585;28;20343;-70
2023/10/01 00:36:54;;;;;;;;;;;;;;;-140.72;100.00;52760.19;5074574;28;19943;-70
2023/10/01 00:39:20;;;;;;;;;;;;;;;-140.72;100.00;52766.25;5075016;28;19920;-70
2023/10/01 00:41:45;;;;;;;;;;;;;;;-140.72;100.00;52762.22;5078095;28;19927;-70
2023/10/01 00:44:13;;;;;;;;;;;;;;;-140.72;100.00;52750.03;5075714;28;19923;-70
2023/10/01 00:46:38;;;;;;;;;;;;;;;-140.72;100.00;52772.34;5076527;28;19920;-70
2023/10/01 00:49:05;;;;;;;;;;;;;;;-140.72;100.00;52776.41;5062932;28;19928;-70
2023/10/01 00:51:32;;;;;;;;;;;;;;;-140.72;100.00;52772.34;5075885;28;19920;-70
2023/10/01 00:53:58;;;;;;;;;;;;;;;-140.72;100.00;52798.72;5072086;28;20288;-69
2023/10/01 00:56:25;;;;;;;;;;;;;;;-140.72;100.00;52756.13;5086051;28;19924;-70
2023/10/01 00:58:50;;;;;;;;;;;;;;;-140.72;100.00;52762.22;5064057;28;19943;-70
2023/10/01 01:01:16;;;;;;;;;;;;;;;-140.72;100.00;52784.53;5073285;28;19920;-70
2023/10/01 01:03:42;;;;;;;;;;;;;;;-140.72;100.00;52776.41;5074611;28;19916;-70
2023/10/01 01:06:17;;;;;;;;;;;;;;;-140.72;100.00;52782.50;5070832;28;19920;-70
2023/10/01 01:08:52;;;;;;;;;;;;;;;-140.72;100.00;52750.03;5066046;28;19955;-70
2023/10/01 01:11:17;;;;;;;;;;;;;;;-140.72;100.00;52760.19;5070301;28;19921;-70
2023/10/01 01:13:47;;;;;;;;;;;;;;;-140.72;100.00;52786.56;5064160;28;19920;-70
2023/10/01 01:16:13;;;;;;;;;;;;;;;-140.72;100.00;52778.44;5060973;28;20400;-71
2023/10/01 01:18:41;;;;;;;;;;;;;;;-140.72;100.00;52784.53;5074175;28;19920;-70
2023/10/01 01:21:10;;;;;;;;;;;;;;;-140.72;100.00;52768.28;5069054;28;19928;-70
2023/10/01 01:23:35;;;;;;;;;;;;;;;-140.72;100.00;52786.56;5074971;28;20014;-70
2023/10/01 01:26:01;;;;;;;;;;;;;;;-140.72;100.00;52778.44;5074757;28;20411;-70
2023/10/01 01:28:32;;;;;;;;;;;;;;;-140.72;100.00;52794.69;5073974;28;19920;-70
2023/10/01 01:31:00;;;;;;;;;;;;;;;-140.72;100.00;52778.44;5074251;28;20377;-70
2023/10/01 01:33:31;;;;;;;;;;;;;;;-140.72;100.00;52772.34;5065043;28;19928;-70
2023/10/01 01:35:57;;;;;;;;;;;;;;;-140.72;100.00;52745.97;5074151;28;19920;-70
2023/10/01 01:38:23;;;;;;;;;;;;;;;-140.72;100.00;52792.66;5074486;28;19924;-70
2023/10/01 01:40:50;;;;;;;;;;;;;;;-140.72;100.00;52762.22;5063872;28;19917;-70
2023/10/01 01:43:16;;;;;;;;;;;;;;;-140.72;100.00;52780.47;5074531;28;19926;-70
2023/10/01 01:45:54;;;;;;;;;;;;;;;-140.72;100.00;52770.31;5067430;28;19916;-70
2023/10/01 01:48:30;;;;;;;;;;;;;;;-140.72;100.00;52739.88;5071579;28;20034;-70
2023/10/01 01:51:02;;;;;;;;;;;;;;;-140.72;100.00;52790.63;5070569;28;19967;-70
2023/10/01 01:53:34;;;;;;;;;;;;;;;-140.72;100.00;52808.88;5073596;28;19928;-70
2023/10/01 01:56:04;;;;;;;;;;;;;;;-140.72;100.00;52748.00;5075499;28;20003;-70
2023/10/01 01:58:30;;;;;;;;;;;;;;;-140.72;100.00;52794.69;5070641;28;19917;-70
2023/10/01 02:01:08;;;;;;;;;;;;;;;-140.72;100.00;52772.34;5077933;28;20352;-70
2023/10/01 02:03:33;;;;;;;;;;;;;;;-140.72;100.00;52762.22;5075271;28;19920;-70
2023/10/01 02:05:59;;;;;;;;;;;;;;;-140.72;100.00;52754.09;5094034;28;19920;-70
2023/10/01 02:08:24;;;;;;;;;;;;;;;-140.72;100.00;52762.22;5070640;28;20340;-70
2023/10/01 02:10:55;;;;;;;;;;;;;;;-140.72;100.00;52748.00;5067585;28;19935;-70
2023/10/01 02:13:24;;;;;;;;;;;;;;;-140.72;100.00;52825.13;5084985;28;19969;-70
2023/10/01 02:15:51;;;;;;;;;;;;;;;-140.72;100.00;52776.41;5073586;28;19927;-70
2023/10/01 02:18:17;;;;;;;;;;;;;;;-140.72;100.00;52762.22;5073773;28;20560;-70
2023/10/01 02:20:44;;;;;;;;;;;;;;;-140.72;100.00;52770.31;5068899;28;19928;-70
2023/10/01 02:23:12;;;;;;;;;;;;;;;-140.72;100.00;52754.09;5073795;28;20049;-70
2023/10/01 02:25:45;;;;;;;;;;;;;;;-140.72;100.00;52748.00;5072735;28;19917;-70
2023/10/01 02:28:13;;;;;;;;;;;;;;;-140.72;100.00;52745.97;5067645;28;20355;-69
2023/10/01 02:30:44;;;;;;;;;;;;;;;-140.72;100.00;52762.22;5072780;28;20379;-70
2023/10/01 02:33:16;;;;;;;;;;;;;;;-140.72;100.00;52780.47;5074438;28;19964;-70
2023/10/01 02:35:42;;;;;;;;;;;;;;;-140.72;100.00;52711.47;5074390;28;19916;-71
2023/10/01 02:38:36;;;;;;;;;;;;;;;-140.72;100.00;52762.22;5073351;28;20298;-70
2023/10/01 02:40:57;;;;;;;;;;;;;;;-140.72;100.00;52790.63;5079896;28;20278;-70
2023/10/01 02:43:24;;;;;;;;;;;;;;;-140.72;100.00;52776.41;5070066;28;20306;-70
2023/10/01 02:45:50;;;;;;;;;;;;;;;-140.72;100.00;52780.47;5073337;28;21619;-70
2023/10/01 02:48:18;;;;;;;;;;;;;;;-140.72;100.00;52741.91;5073798;28;20023;-70
2023/10/01 02:50:45;;;;;;;;;;;;;;;-140.72;100.00;52752.06;5073394;28;20399;-70
2023/10/01 02:53:11;;;;;;;;;;;;;;;-140.72;100.00;52772.34;5073428;28;19917;-70
2023/10/01 02:55:44;;;;;;;;;;;;;;;-140.72;100.00;52768.28;5073524;28;19965;-70
2023/10/01 02:58:17;;;;;;;;;;;;;;;-140.72;100.00;52760.19;5073852;28;19923;-70
2023/10/01 03:00:43;;;;;;;;;;;;;;;-140.72;100.00;52786.56;5073656;28;19965;-70
2023/10/01 03:03:14;;;;;;;;;;;;;;;-140.72;100.00;52810.91;5072799;28;19921;-70
2023/10/01 03:05:42;;;;;;;;;;;;;;;-140.72;100.00;52772.34;5073244;28;19928;-70
2023/10/01 03:08:12;;;;;;;;;;;;;;;-140.72;100.00;52776.41;5073659;28;20286;-70
2023/10/01 03:10:38;;;;;;;;;;;;;;;-140.72;100.00;52798.72;5071671;28;20032;-70
2023/10/01 03:13:30;;;;;;;;;;;;;;;-140.72;100.00;52812.94;5069939;28;20003;-70
2023/10/01 03:18:36;;;;;;;;;;;;;;;-140.72;100.00;52796.72;5074348;28;19966;-69
2023/10/01 03:21:07;;;;;;;;;;;;;;;-140.72;100.00;52772.34;5074296;28;19920;-69
2023/10/01 03:23:33;;;;;;;;;;;;;;;-140.72;100.00;52762.22;5063603;28;20374;-70
2023/10/01 03:26:05;;;;;;;;;;;;;;;-140.72;100.00;52792.66;5072811;28;19920;-70
2023/10/01 03:28:33;;;;;;;;;;;;;;;-140.72;100.00;52735.81;5070908;28;20070;-70
2023/10/01 03:31:09;;;;;;;;;;;;;;;-140.72;100.00;52806.84;5073803;28;20033;-70
2023/10/01 03:33:38;;;;;;;;;;;;;;;-140.72;100.00;52784.53;5068419;28;19927;-70
2023/10/01 03:36:10;;;;;;;;;;;;;;;-140.72;100.00;52758.16;5067596;28;19917;-70
2023/10/01 03:38:39;;;;;;;;;;;;;;;-140.72;100.00;52821.06;5064404;28;19970;-70
2023/10/01 03:41:20;;;;;;;;;;;;;;;-140.72;100.00;52756.13;5081741;28;19920;-70
2023/10/01 03:43:47;;;;;;;;;;;;;;;-140.72;100.00;52776.41;5073315;28;19974;-70
2023/10/01 03:51:28;;;;;;;;;;;;;;;-140.72;100.00;52766.25;5077989;28;19928;-70
2023/10/01 03:54:00;;;;;;;;;;;;;;;-140.72;100.00;52780.47;5075042;28;20003;-70
2023/10/01 03:56:29;;;;;;;;;;;;;;;-140.72;100.00;52794.69;5085109;28;19927;-70
2023/10/01 03:58:55;;;;;;;;;;;;;;;-140.72;100.00;52778.44;5081189;28;19966;-70
2023/10/01 04:01:33;;;;;;;;;;;;;;;-140.72;100.00;52772.34;5069325;28;19921;-70
2023/10/01 04:04:01;;;;;;;;;;;;;;;-140.72;100.00;52748.00;5077598;28;19916;-70
2023/10/01 04:06:27;;;;;;;;;;;;;;;-140.72;100.00;52786.56;5076491;28;19917;-69
2023/10/01 04:08:55;;;;;;;;;;;;;;;-140.72;100.00;52748.00;5076575;28;20398;-70
2023/10/01 04:11:41;;;;;;;;;;;;;;;-140.72;100.00;52812.94;5068666;28;19928;-70
2023/10/01 04:14:10;;;;;;;;;;;;;;;-140.72;100.00;52776.41;5064622;28;19954;-70
2023/10/01 04:16:36;;;;;;;;;;;;;;;-140.72;100.00;52782.50;5075694;28;20379;-70
2023/10/01 04:19:03;;;;;;;;;;;;;;;-140.72;100.00;52762.22;5068493;28;19916;-70
2023/10/01 04:21:35;;;;;;;;;;;;;;;-140.72;100.00;52778.44;5075093;28;20010;-70
2023/10/01 04:24:02;;;;;;;;;;;;;;;-140.72;100.00;52760.19;5086268;28;20434;-70
2023/10/01 04:26:29;;;;;;;;;;;;;;;-140.72;100.00;52800.75;5074588;28;19943;-70
2023/10/01 04:28:54;;;;;;;;;;;;;;;-140.72;100.00;52806.84;5078324;28;20016;-70
2023/10/01 04:34:11;;;;;;;;;;;;;;;-140.72;100.00;52792.66;5068941;28;20294;-70
2023/10/01 04:36:39;;;;;;;;;;;;;;;-140.72;100.00;52796.72;5074852;28;19995;-70
2023/10/01 04:39:05;;;;;;;;;;;;;;;-140.72;100.00;52800.75;5076464;28;19920;-70
2023/10/01 04:41:31;;;;;;;;;;;;;;;-140.72;100.00;52758.16;5075010;28;19929;-70
2023/10/01 04:44:03;;;;;;;;;;;;;;;-140.72;100.00;52774.38;5076224;28;20041;-70
2023/10/01 04:46:29;;;;;;;;;;;;;;;-140.72;100.00;52782.50;5075262;28;19974;-70
2023/10/01 04:48:56;;;;;;;;;;;;;;;-140.72;100.00;52776.41;5076142;28;19924;-70
2023/10/01 04:51:21;;;;;;;;;;;;;;;-140.72;100.00;52760.19;5075144;28;20294;-70
2023/10/01 04:53:47;;;;;;;;;;;;;;;-140.72;100.00;52821.06;5075448;28;19916;-70
2023/10/01 04:56:22;;;;;;;;;;;;;;;-140.72;100.00;52800.75;5071055;28;19920;-70
2023/10/01 04:58:51;;;;;;;;;;;;;;;-140.72;100.00;52796.72;5070188;28;19920;-70
2023/10/01 05:01:17;;;;;;;;;;;;;;;-140.72;100.00;52774.38;5063370;28;19917;-70
2023/10/01 05:03:44;;;;;;;;;;;;;;;-140.72;100.00;52762.22;5075148;28;19977;-70
2023/10/01 05:06:14;;;;;;;;;;;;;;;-140.72;100.00;52806.84;5075557;28;19928;-70
2023/10/01 05:08:39;;;;;;;;;;;;;;;-140.72;100.00;52794.69;5074821;28;19924;-70
2023/10/01 05:11:10;;;;;;;;;;;;;;;-140.72;100.00;52770.31;5071722;28;19950;-70
2023/10/01 05:13:39;;;;;;;;;;;;;;;-140.72;100.00;52776.41;5070172;28;19960;-70
2023/10/01 05:16:06;;;;;;;;;;;;;;;-140.72;100.00;52780.47;5067311;28;20008;-70
2023/10/01 05:18:33;;;;;;;;;;;;;;;-140.72;100.00;52786.56;5079188;28;20302;-70
2023/10/01 05:20:58;;;;;;;;;;;;;;;-140.72;100.00;52776.41;5081611;28;20006;-70
2023/10/01 05:23:25;;;;;;;;;;;;;;;-140.72;100.00;52792.66;5078749;28;19920;-68
2023/10/01 05:25:51;;;;;;;;;;;;;;;-140.72;100.00;52780.47;5075274;28;19921;-68
2023/10/01 05:28:36;;;;;;;;;;;;;;;-140.72;100.00;52808.88;5068416;28;20354;-68
2023/10/01 05:31:05;;;;;;;;;;;;;;;-140.72;100.00;52812.94;5074724;28;19982;-69
2023/10/01 05:33:33;;;;;;;;;;;;;;;-140.72;100.00;52780.47;5074684;28;19938;-69
2023/10/01 05:36:10;;;;;;;;;;;;;;;-140.72;100.00;52814.97;5078666;28;19917;-72
2023/10/01 05:38:36;;;;;;;;;;;;;;;-140.72;100.00;52808.88;5078433;28;19916;-80
2023/10/01 05:41:03;;;;;;;;;;;;;;;-140.72;100.00;52792.66;5085717;28;19932;-81
2023/10/01 05:43:37;;;;;;;;;;;;;;;-140.72;100.00;52814.97;5079099;28;20405;-80
2023/10/01 05:46:02;;;;;;;;;;;;;;;-140.72;100.00;52768.28;5078277;28;20810;-81
2023/10/01 05:48:37;;;;;;;;;;;;;;;-140.72;100.00;52778.44;5078578;28;19920;-80
2023/10/01 05:51:03;;;;;;;;;;;;;;;-140.72;100.00;52776.41;5076390;28;19917;-81
2023/10/01 05:53:30;;;;;;;;;;;;;;;-140.72;100.00;52790.63;5077255;28;19952;-78
2023/10/01 05:56:02;;;;;;;;;;;;;;;-140.72;100.00;52798.72;5080296;28;19927;-81
2023/10/01 05:58:34;;;;;;;;;;;;;;;-140.72;100.00;52802.78;5077024;28;19924;-81
2023/10/01 06:01:05;;;;;;;;;;;;;;;-140.72;100.00;52768.28;5087070;28;19920;-79
2023/10/01 06:03:31;;;;;;;;;;;;;;;-140.72;100.00;52800.75;5082202;28;20000;-77
2023/10/01 06:05:59;;;;;;;;;;;;;;;-140.72;100.00;52802.78;5080580;28;19944;-80
2023/10/01 06:08:25;;;;;;;;;;;;;;;-140.72;100.00;52821.06;5070155;28;19921;-80
2023/10/01 06:10:59;;;;;;;;;;;;;;;-140.72;100.00;52792.66;5068262;28;19916;-80
2023/10/01 06:13:35;;;;;;;;;;;;;;;-140.72;100.00;52784.53;5074248;28;19930;-78
2023/10/01 06:16:16;;;;;;;;;;;;;;;-140.72;100.00;52792.66;5067951;28;19924;-80
2023/10/01 06:18:42;;;;;;;;;;;;;;;-140.72;100.00;52806.84;5077332;28;20298;-81
2023/10/01 06:21:09;;;;;;;;;;;;;;;-140.72;100.00;52833.22;5077589;28;19959;-77
2023/10/01 06:23:48;;;;;;;;;;;;;;;-140.72;100.00;52796.72;5071307;28;19920;-78
2023/10/01 06:26:14;;;;;;;;;;;;;;;-140.72;100.00;52796.72;5077930;28;20355;-77
2023/10/01 06:28:41;;;;;;;;;;;;;;;-140.72;100.00;52817.00;5077241;28;20027;-72
2023/10/01 06:31:06;;;;;;;;;;;;;;;-140.72;100.00;52853.53;5074210;28;19927;-72
2023/10/01 06:33:35;;;;;;;;;;;;;;;-140.72;100.00;52808.88;5077019;28;19916;-72
2023/10/01 06:36:16;;;;;;;;;;;;;;;-140.72;100.00;52808.88;5071453;28;19924;-72
2023/10/01 06:39:19;;;;;;;;;;;;;;;-140.72;100.00;52778.44;5066011;28;19967;-72
2023/10/01 06:41:52;;;;;;;;;;;;;;;-140.72;100.00;52804.81;5061666;28;20015;-74
2023/10/01 06:44:19;;;;;;;;;;;;;;;-140.72;100.00;52857.59;5087098;28;19974;-77
2023/10/01 06:46:45;;;;;;;;;;;;;;;-140.72;100.00;52804.81;5080066;28;19924;-73
2023/10/01 06:49:10;;;;;;;;;;;;;;;-140.72;100.00;52825.13;5068687;28;19921;-74
2023/10/01 06:51:44;;;;;;;;;;;;;;;-140.72;100.00;52796.72;5082067;28;19916;-73
2023/10/01 06:54:13;;;;;;;;;;;;;;;-140.72;100.00;52821.06;5062635;28;19920;-73
2023/10/01 06:56:43;;;;;;;;;;;;;;;-140.72;100.00;52825.13;5074973;28;19921;-74
2023/10/01 07:01:35;;;;;;;;;;;;;;;-140.72;100.00;52804.81;5073736;28;20027;-73
2023/10/01 07:04:05;;;;;;;;;;;;;;;-140.72;100.00;52843.38;5073122;28;19925;-70
2023/10/01 07:06:31;;;;;;;;;;;;;;;-140.72;100.00;52766.25;5073242;28;19951;-71
2023/10/01 07:08:58;;;;;;;;;;;;;;;-140.72;100.00;52796.72;5072338;28;19989;-72
2023/10/01 07:11:42;;;;;;;;;;;;;;;-140.72;100.00;52804.81;5073547;28;20278;-70
2023/10/01 07:14:09;;;;;;;;;;;;;;;-140.72;100.00;52750.03;5074736;28;20003;-72
2023/10/01 07:16:42;;;;;;;;;;;;;;;-140.72;100.00;52817.00;5073380;28;19974;-69
2023/10/01 07:19:20;;;;;;;;;;;;;;;-140.72;100.00;52796.72;5067058;28;19920;-69
2023/10/01 07:21:56;;;;;;;;;;;;;;;-140.72;100.00;52800.75;5068896;28;20262;-68
2023/10/01 07:24:23;;;;;;;;;;;;;;;-140.72;100.00;52790.63;5071985;28;19928;-68
2023/10/01 07:26:50;;;;;;;;;;;;;;;-140.72;100.00;52782.50;5085445;28;20436;-69
2023/10/01 07:29:16;;;;;;;;;;;;;;;-140.72;100.00;52774.38;5074569;28;19928;-69
2023/10/01 07:31:43;;;;;;;;;;;;;;;-140.72;100.00;52774.38;5077714;28;20290;-69
2023/10/01 07:34:14;;;;;;;;;;;;;;;-140.72;100.00;52780.47;5070721;28;19921;-69
2023/10/01 07:36:42;;;;;;;;;;;;;;;-140.72;100.00;52780.47;5074236;28;19956;-69
2023/10/01 07:39:07;;;;;;;;;;;;;;;-140.72;100.00;52764.25;5076078;28;20374;-69
2023/10/01 07:41:38;;;;;;;;;;;;;;;-140.72;100.00;52780.47;5076605;28;19924;-70
2023/10/01 07:44:08;;;;;;;;;;;;;;;-140.72;100.00;52758.16;5075416;28;19921;-69
2023/10/01 07:46:33;;;;;;;;;;;;;;;-140.72;100.00;52741.91;5075765;28;19973;-68
2023/10/01 07:49:00;;;;;;;;;;;;;;;-140.72;100.00;52737.84;5076145;28;19929;-69
2023/10/01 07:51:31;;;;;;;;;;;;;;;-140.72;100.00;52764.25;5092303;28;19952;-70
2023/10/01 07:53:59;;;;;;;;;;;;;;;-140.72;100.00;52758.16;5088157;28;20014;-68
2023/10/01 07:56:25;;;;;;;;;;;;;;;-140.72;100.00;52737.84;5089768;28;20042;-69
2023/10/01 07:58:57;;;;;;;;;;;;;;;-140.72;100.00;52762.22;5076793;28;19958;-70
2023/10/01 08:01:38;;;;;;;;;;;;;;;-140.72;100.00;52731.75;5078262;28;19920;-69
2023/10/01 08:04:25;;;;;;;;;;;;;;;-140.72;100.00;52705.38;5074928;28;19924;-69
2023/10/01 08:06:50;;;;;;;;;;;;;;;-140.72;100.00;52727.72;5088020;28;19916;-69
2023/10/01 08:09:16;;;;;;;;;;;;;;;-140.72;100.00;52674.94;5074535;28;19917;-69
2023/10/01 08:14:33;;;;;;;;;;;;;;;-140.72;100.00;52670.88;5062863;28;19931;-68
2023/10/01 08:17:00;;;;;;;;;;;;;;;-140.72;100.00;52709.44;5075246;28;19978;-69
2023/10/01 08:19:41;;;;;;;;;;;;;;;-140.72;100.00;52711.47;5070863;28;19921;-70
2023/10/01 08:22:13;;;;;;;;;;;;;;;-140.72;100.00;52670.88;5072529;28;19920;-70
2023/10/01 08:24:38;;;;;;;;;;;;;;;-140.72;100.00;52676.97;5070411;28;19935;-70
2023/10/01 08:27:04;;;;;;;;;;;;;;;-140.72;100.00;52687.13;5075997;28;19920;-70
2023/10/01 08:32:14;;;;;;;;;;;;;;;-140.72;100.00;52670.88;5061209;28;19928;-70
2023/10/01 08:37:23;;;;;;;;;;;;;;;-140.72;100.00;52664.81;5076135;28;19939;-69
2023/10/01 08:39:48;;;;;;;;;;;;;;;-140.72;100.00;52687.13;5073421;28;20362;-70
2023/10/01 08:42:16;;;;;;;;;;;;;;;-140.72;100.00;52711.47;5065951;28;19927;-71
2023/10/01 08:44:47;;;;;;;;;;;;;;;-140.72;100.00;52705.38;5075332;28;20038;-70
2023/10/01 08:47:26;;;;;;;;;;;;;;;-140.72;100.00;52752.06;5067998;28;19927;-70
2023/10/01 08:49:52;;;;;;;;;;;;;;;-140.72;100.00;52689.16;5074715;28;20263;-70
2023/10/01 08:52:25;;;;;;;;;;;;;;;-140.72;100.00;52666.84;5084734;28;20073;-70
2023/10/01 08:54:53;;;;;;;;;;;;;;;-140.72;100.00;52693.22;5075202;28;20058;-70
2023/10/01 08:57:24;;;;;;;;;;;;;;;-140.72;100.00;52719.59;5075701;28;19917;-70
2023/10/01 08:59:53;;;;;;;;;;;;;;;-140.72;100.00;52735.81;5073772;28;19941;-70
2023/10/01 09:02:19;;;;;;;;;;;;;;;-140.72;100.00;52703.34;5068859;28;20298;-70
2023/10/01 09:04:45;;;;;;;;;;;;;;;-140.72;100.00;52672.91;5066399;28;19931;-70
2023/10/01 09:07:20;;;;;;;;;;;;;;;-140.72;100.00;52727.72;5073583;28;19917;-70
2023/10/01 09:10:05;;;;;;;;;;;;;;;-140.72;100.00;52676.97;5076859;28;19921;-70
2023/10/01 09:12:34;;;;;;;;;;;;;;;-140.72;100.00;52670.88;5072419;28;19928;-70
2023/10/01 09:15:00;;;;;;;;;;;;;;;-140.72;100.00;52723.66;5075199;28;20067;-70
2023/10/01 09:17:25;;;;;;;;;;;;;;;-140.72;100.00;52691.19;5074976;28;19920;-70
2023/10/01 09:19:51;;;;;;;;;;;;;;;-140.72;100.00;52664.81;5074933;28;20413;-70
2023/10/01 09:22:40;;;;;;;;;;;;;;;-140.72;100.00;52674.94;5073328;28;19962;-70
2023/10/01 09:25:15;;;;;;;;;;;;;;;-140.72;100.00;52652.63;5075133;28;20404;-70
2023/10/01 09:28:04;;;;;;;;;;;;;;;-140.72;100.00;52666.84;5070456;28;20011;-70
2023/10/01 09:30:34;;;;;;;;;;;;;;;-140.72;100.00;52666.84;5068500;28;19938;-70
2023/10/01 09:33:04;;;;;;;;;;;;;;;-140.72;100.00;52640.44;5074009;28;19947;-70
2023/10/01 09:35:59;;;;;;;;;;;;;;;-140.72;100.00;52636.38;5073543;28;19924;-70
2023/10/01 09:38:27;;;;;;;;;;;;;;;-140.72;100.00;52683.06;5068968;28;19927;-70
2023/10/01 09:40:54;;;;;;;;;;;;;;;-140.72;100.00;52654.66;5076787;28;20401;-70
2023/10/01 09:43:24;;;;;;;;;;;;;;;-140.72;100.00;52632.34;5056888;28;20364;-70
2023/10/01 09:45:51;;;;;;;;;;;;;;;-140.72;100.00;52658.72;5072008;28;20016;-69
2023/10/01 09:48:30;;;;;;;;;;;;;;;-140.72;100.00;52656.69;5082657;28;19923;-69
2023/10/01 09:51:15;;;;;;;;;;;;;;;-140.72;100.00;52638.41;5077572;28;19929;-69
2023/10/01 09:53:50;;;;;;;;;;;;;;;-140.72;100.00;52668.84;5072718;28;20005;-69
2023/10/01 09:56:46;;;;;;;;;;;;;;;-140.72;100.00;52636.38;5074343;28;19920;-68
2023/10/01 09:59:12;;;;;;;;;;;;;;;-140.72;100.00;52646.53;5079120;28;19923;-69
2023/10/01 10:01:40;;;;;;;;;;;;;;;-140.72;100.00;52640.44;5075080;28;19921;-69
2023/10/01 10:04:10;;;;;;;;;;;;;;;-140.72;100.00;52614.06;5073317;28;20347;-69
2023/10/01 10:06:38;;;;;;;;;;;;;;;-140.72;100.00;52607.97;5077883;28;19924;-69
2023/10/01 10:09:04;;;;;;;;;;;;;;;-140.72;100.00;52610.00;5087751;28;19924;-69
2023/10/01 10:11:36;;;;;;;;;;;;;;;-140.72;100.00;52597.84;5073329;28;20306;-68
2023/10/01 10:14:02;;;;;;;;;;;;;;;-140.72;100.00;52634.38;5072271;28;20394;-69
2023/10/01 10:16:34;;;;;;;;;;;;;;;-140.72;100.00;52585.66;5068082;28;19921;-69
2023/10/01 10:19:11;;;;;;;;;;;;;;;-140.72;100.00;52587.69;5073594;28;20357;-69
2023/10/01 10:24:29;;;;;;;;;;;;;;;-140.72;100.00;52593.78;5063847;28;19966;-68
2023/10/01 10:27:00;;;;;;;;;;;;;;;-140.72;100.00;52563.34;5078592;28;19923;-68
2023/10/01 10:29:46;;;;;;;;;;;;;;;-140.72;100.00;52567.41;5069826;28;20011;-68
2023/10/01 10:32:12;;;;;;;;;;;;;;;-140.72;100.00;52543.03;5062873;28;19927;-69
2023/10/01 10:34:47;;;;;;;;;;;;;;;-140.72;100.00;52559.28;5074427;28;19956;-69
2023/10/01 10:37:33;;;;;;;;;;;;;;;-140.72;100.00;52573.50;5062156;28;19921;-69
2023/10/01 10:42:42;;;;;;;;;;;;;;;-140.72;100.00;52514.63;5073988;28;19974;-76
2023/10/01 10:48:03;;;;;;;;;;;;;;;-140.72;100.00;52366.50;5062624;28;20324;-69
2023/10/01 10:50:45;;;;;;;;;;;;;;;-140.72;0.00;52356.38;5074052;28;19923;-69
2023/10/01 10:53:20;;;;;;;;;;;;;;;-140.72;0.00;52321.88;5064598;28;19977;-69
2023/10/01 10:55:52;;;;;;;;;;;;;;;-140.72;0.00;52287.38;5086343;28;20015;-69
2023/10/01 10:58:19;;;;;;;;;;;;;;;-140.72;0.00;52325.94;5068976;28;19920;-69
2023/10/01 11:00:46;;;;;;;;;;;;;;;-140.72;0.00;52305.63;5074044;28;19973;-70
2023/10/01 11:03:11;;;;;;;;;;;;;;;-140.72;0.00;52267.09;5074272;28;19965;-69
2023/10/01 11:05:54;;;;;;;;;;;;;;;-140.72;0.00;52289.41;5090865;28;19920;-69
2023/10/01 11:08:25;;;;;;;;;;;;;;;-140.72;0.00;52261.00;5073134;28;19924;-70
2023/10/01 11:10:51;;;;;;;;;;;;;;;-140.72;0.00;52256.94;5068910;28;20278;-69
2023/10/01 11:13:27;;;;;;;;;;;;;;;-140.72;0.00;52196.06;5077315;28;19921;-69
2023/10/01 11:15:52;;;;;;;;;;;;;;;-140.72;0.00;52212.31;5075898;28;20374;-69
2023/10/01 11:18:25;;;;;;;;;;;;;;;-140.72;0.00;52204.19;5074487;28;19946;-69
2023/10/01 11:21:01;;;;;;;;;;;;;;;-140.72;0.00;52246.78;5077372;28;19923;-69
2023/10/01 11:23:26;;;;;;;;;;;;;;;-140.72;0.00;52189.97;5069320;28;19920;-70
2023/10/01 11:25:51;;;;;;;;;;;;;;;-140.72;0.00;52163.59;5076777;28;19916;-69
2023/10/01 11:28:17;;;;;;;;;;;;;;;-140.72;0.00;52198.09;5071668;28;19973;-69
2023/10/01 11:30:42;;;;;;;;;;;;;;;-140.72;0.00;52163.59;5076925;28;19916;-69
2023/10/01 11:35:38;;;;;;;;;;;;;;;-140.72;0.00;52163.59;5077014;28;20347;-69
2023/10/01 11:38:07;;;;;;;;;;;;;;;-140.72;0.00;52171.72;5075314;28;19963;-69
2023/10/01 11:43:27;;;;;;;;;;;;;;;-140.72;0.00;52106.78;5075511;28;20329;-70
2023/10/01 11:46:23;;;;;;;;;;;;;;;-140.72;0.00;52086.50;5075234;28;20275;-69
2023/10/01 11:49:08;;;;;;;;;;;;;;;-140.72;0.00;52096.66;5076008;28;19921;-70
2023/10/01 11:51:48;;;;;;;;;;;;;;;-140.72;0.00;52112.88;5064762;28;20315;-70
2023/10/01 11:54:17;;;;;;;;;;;;;;;-140.72;0.00;52175.78;5064918;28;19920;-70
2023/10/01 11:57:04;;;;;;;;;;;;;;;-140.72;0.00;52114.91;5076886;28;19924;-69
2023/10/01 11:59:30;;;;;;;;;;;;;;;-140.72;0.00;52137.22;5071948;28;19920;-69
2023/10/01 12:02:15;;;;;;;;;;;;;;;-140.72;0.00;52137.22;5075892;28;19967;-69
2023/10/01 12:04:43;;;;;;;;;;;;;;;-140.72;0.00;52098.69;5060507;28;19954;-69
2023/10/01 12:07:15;;;;;;;;;;;;;;;-140.72;0.00;52165.63;5073864;28;19986;-69
2023/10/01 12:09:50;;;;;;;;;;;;;;;-140.72;0.00;52096.66;5073335;28;19921;-69
2023/10/01 12:12:18;;;;;;;;;;;;;;;-140.72;0.00;52074.34;5087445;28;19984;-69
2023/10/01 12:14:55;;;;;;;;;;;;;;;-140.72;0.00;52102.75;5068354;28;19921;-69
2023/10/01 12:17:27;;;;;;;;;;;;;;;-140.72;0.00;52033.75;5073493;28;19963;-69
2023/10/01 12:19:59;;;;;;;;;;;;;;;-140.72;0.00;52043.91;5072821;28;21207;-69
2023/10/01 12:22:25;;;;;;;;;;;;;;;-140.72;0.00;51983.03;5067261;28;20367;-70
2023/10/01 12:24:56;;;;;;;;;;;;;;;-140.72;0.00;52045.94;5065605;28;19920;-69
2023/10/01 12:27:37;;;;;;;;;;;;;;;-140.72;0.00;52011.44;5074915;28;19916;-69
2023/10/01 12:30:04;;;;;;;;;;;;;;;-140.72;0.00;52045.94;5075052;28;19942;-70
2023/10/01 12:32:41;;;;;;;;;;;;;;;-140.72;0.00;52049.97;5076257;28;19939;-69
2023/10/01 12:35:18;;;;;;;;;;;;;;;-140.72;0.00;52045.94;5064476;28;19921;-69
2023/10/01 12:37:44;;;;;;;;;;;;;;;-140.72;0.00;51974.91;5076613;28;19917;-69
2023/10/01 12:40:16;;;;;;;;;;;;;;;-140.72;0.00;51985.06;5075567;28;19963;-69
2023/10/01 12:42:50;;;;;;;;;;;;;;;-140.72;0.00;51997.22;5075607;28;19917;-69
2023/10/01 12:45:19;;;;;;;;;;;;;;;-140.72;0.00;51987.09;5083804;28;19994;-70
2023/10/01 12:47:50;;;;;;;;;;;;;;;-140.72;0.00;51970.84;5079361;28;19925;-69
2023/10/01 12:50:26;;;;;;;;;;;;;;;-140.72;0.00;52027.66;5069357;28;19920;-70
2023/10/01 12:52:51;;;;;;;;;;;;;;;-140.72;0.00;52043.91;5075776;28;20294;-69
2023/10/01 12:55:16;;;;;;;;;;;;;;;-140.72;0.00;52011.44;5068223;28;19921;-70
2023/10/01 12:57:42;;;;;;;;;;;;;;;-140.72;0.00;51978.97;5088978;28;19917;-70
2023/10/01 13:00:43;;;;;;;;;;;;;;;-140.72;0.00;52013.47;5072648;28;20389;-70
2023/10/01 13:03:15;;;;;;;;;;;;;;;-140.72;0.00;52110.84;5074392;28;19916;-69
2023/10/01 13:05:43;;;;;;;;;;;;;;;-140.72;0.00;52118.97;5073155;28;20488;-70
2023/10/01 13:08:10;;;;;;;;;;;;;;;-140.72;0.00;52110.84;5075607;28;20262;-70
2023/10/01 13:10:38;;;;;;;;;;;;;;;-140.72;0.00;52076.34;5075490;28;20011;-70